Time;durP1;ratioP1;P1;durP2;ratioP2;P2;SDS_P1;SDS_P2;PMS_P1;PMS_P2;Temp;Humidity;BMP_temperature;BMP_pressure;BME280_temperature;BME280_humidity;BME280_pressure;Samples;Min_cycle;Max_cycle;Signal;HPM_P1;HPM_P2
2022/01/23 00:00:28;;;;;;;3.60;1.25;;;5.80;99.90;;;;;;4132678;28;20112;-83
2022/01/23 00:02:31;;;;;;;8.38;1.08;;;6.10;99.90;;;;;;4131738;28;20482;-85
2022/01/23 00:04:32;;;;;;;6.25;1.20;;;6.00;99.90;;;;;;4131963;28;20065;-83
2022/01/23 00:06:33;;;;;;;8.30;1.90;;;6.40;99.90;;;;;;4149421;28;20490;-82
2022/01/23 00:08:33;;;;;;;9.95;1.63;;;6.40;99.90;;;;;;4131908;28;20089;-82
2022/01/23 00:10:34;;;;;;;4.45;1.23;;;5.80;99.90;;;;;;4148800;28;20125;-82
2022/01/23 00:12:42;;;;;;;2.28;1.48;;;5.80;99.90;;;;;;4116010;28;20046;-82
2022/01/23 00:19:15;;;;;;;3.15;1.00;;;5.80;99.90;;;;;;4139597;28;20057;-83
2022/01/23 00:21:15;;;;;;;2.83;0.80;;;5.40;99.90;;;;;;4131807;28;20038;-83
2022/01/23 00:30:25;;;;;;;2.03;0.85;;;6.10;99.90;;;;;;4131894;28;20054;-83
2022/01/23 00:32:26;;;;;;;4.70;1.02;;;5.80;99.90;;;;;;4130060;28;20054;-83
2022/01/23 00:34:27;;;;;;;5.63;1.23;;;5.80;99.90;;;;;;4131362;28;20510;-83
2022/01/23 00:36:28;;;;;;;4.75;1.10;;;6.50;99.90;;;;;;4115194;28;20061;-83
2022/01/23 00:38:29;;;;;;;5.70;0.90;;;6.60;99.90;;;;;;4131876;28;20148;-83
2022/01/23 00:40:32;;;;;;;7.07;1.08;;;6.00;99.90;;;;;;4149023;28;20450;-83
2022/01/23 00:42:34;;;;;;;2.80;0.90;;;5.80;99.90;;;;;;4132074;28;20085;-83
2022/01/23 00:44:36;;;;;;;4.10;0.95;;;6.40;99.90;;;;;;4131488;28;20174;-83
2022/01/23 00:46:39;;;;;;;3.72;1.00;;;5.80;99.90;;;;;;4115004;28;20043;-83
2022/01/23 00:48:52;;;;;;;6.13;1.48;;;5.80;99.90;;;;;;4130362;28;20101;-83
2022/01/23 00:50:53;;;;;;;4.40;1.02;;;5.80;99.90;;;;;;4131615;28;20073;-83
2022/01/23 00:52:54;;;;;;;7.10;0.98;;;5.90;99.90;;;;;;4131264;28;20050;-84
2022/01/23 00:54:55;;;;;;;2.20;0.88;;;5.80;99.90;;;;;;4131564;28;20042;-83
2022/01/23 00:56:56;;;;;;;1.75;0.82;;;5.80;99.90;;;;;;4148731;28;20067;-84
2022/01/23 00:58:57;;;;;;;4.85;1.40;;;5.80;99.90;;;;;;4148696;28;20046;-84
2022/01/23 01:00:57;;;;;;;5.25;1.00;;;5.80;99.90;;;;;;4148119;28;20092;-83
2022/01/23 01:02:58;;;;;;;5.13;0.80;;;5.80;99.90;;;;;;4148972;28;20104;-83
2022/01/23 01:04:59;;;;;;;7.22;1.08;;;6.20;99.90;;;;;;4147718;28;20052;-83
2022/01/23 01:07:01;;;;;;;3.35;1.08;;;5.80;99.90;;;;;;4148430;28;20046;-83
2022/01/23 01:09:06;;;;;;;3.97;1.10;;;5.80;99.90;;;;;;4147982;28;20046;-83
2022/01/23 01:13:11;;;;;;;7.97;1.35;;;5.80;99.90;;;;;;4131235;28;20054;-83
2022/01/23 01:31:30;;;;;;;5.70;1.00;;;5.80;99.90;;;;;;4147599;28;20099;-83
2022/01/23 01:33:49;;;;;;;7.40;1.40;;;6.00;99.90;;;;;;4147273;28;20050;-83
2022/01/23 01:38:17;;;;;;;4.65;1.40;;;5.80;99.90;;;;;;4131727;28;20057;-83
2022/01/23 01:40:19;;;;;;;3.50;1.35;;;5.80;99.90;;;;;;4129222;28;20104;-83
2022/01/23 01:42:20;;;;;;;8.27;1.48;;;5.90;99.90;;;;;;4147692;28;20056;-83
2022/01/23 01:44:24;;;;;;;5.10;1.52;;;6.30;99.90;;;;;;4113480;28;20090;-84
2022/01/23 01:46:28;;;;;;;2.85;1.60;;;6.60;99.90;;;;;;4130103;28;20144;-84
2022/01/23 01:48:29;;;;;;;6.32;1.40;;;6.70;99.90;;;;;;4113899;28;20051;-83
2022/01/23 01:50:31;;;;;;;7.90;1.48;;;5.90;99.90;;;;;;4147638;28;20052;-83
2022/01/23 01:52:34;;;;;;;7.97;1.63;;;6.90;99.90;;;;;;4147617;28;20107;-83
2022/01/23 01:54:35;;;;;;;11.55;1.65;;;6.30;99.90;;;;;;4130155;28;20046;-83
2022/01/23 01:56:46;;;;;;;4.93;1.90;;;5.80;99.90;;;;;;4146213;28;20147;-84
2022/01/23 02:00:57;;;;;;;2.97;1.25;;;6.50;99.90;;;;;;4147671;28;20064;-83
2022/01/23 02:09:45;;;;;;;4.78;1.75;;;5.80;99.90;;;;;;4129398;28;20046;-83
2022/01/23 02:14:15;;;;;;;5.53;2.45;;;5.80;99.90;;;;;;4147751;28;20046;-84
2022/01/23 02:50:49;;;;;;;4.30;1.58;;;6.60;99.90;;;;;;4150710;28;20112;-83
2022/01/23 02:53:34;;;;;;;5.68;1.48;;;5.80;99.90;;;;;;4132482;28;20065;-84
2022/01/23 02:55:26;;;;;;;4.53;1.73;;;5.80;99.90;;;;;;4148140;28;20046;-83
2022/01/23 02:57:52;;;;;;;5.88;1.75;;;6.60;99.90;;;;;;4150004;28;20049;-83
2022/01/23 02:59:54;;;;;;;3.95;1.70;;;5.90;99.90;;;;;;4116379;28;20139;-83
2022/01/23 03:04:13;;;;;;;5.33;1.60;;;5.80;99.90;;;;;;4150121;28;20410;-83
2022/01/23 03:08:30;;;;;;;3.97;1.25;;;5.80;99.90;;;;;;4147856;28;20097;-84
2022/01/23 03:10:48;;;;;;;6.78;1.65;;;6.20;99.90;;;;;;4135995;28;20065;-83
2022/01/23 03:15:07;;;;;;;2.65;1.58;;;5.80;99.90;;;;;;4132656;28;20046;-83
2022/01/23 03:24:35;;;;;;;3.35;1.45;;;5.80;99.90;;;;;;4133503;28;20050;-83
2022/01/23 03:27:05;;;;;;;3.03;1.23;;;5.90;99.90;;;;;;4116301;28;20042;-84
2022/01/23 03:31:24;;;;;;;4.22;1.65;;;6.30;99.90;;;;;;4150436;28;20085;-83
2022/01/23 03:33:26;;;;;;;7.88;1.80;;;6.00;99.90;;;;;;4133118;28;20080;-83
2022/01/23 03:35:27;;;;;;;6.55;1.48;;;5.80;99.90;;;;;;4134747;28;20557;-83
2022/01/23 03:37:27;;;;;;;5.28;1.63;;;5.80;99.90;;;;;;4134045;28;20046;-83
2022/01/23 03:39:29;;;;;;;7.40;1.67;;;5.80;99.90;;;;;;4146890;28;20049;-83
2022/01/23 03:41:30;;;;;;;5.47;2.90;;;6.30;99.90;;;;;;4153149;28;20106;-83
2022/01/23 03:43:34;;;;;;;7.03;1.80;;;6.30;99.90;;;;;;4152075;28;20035;-83
2022/01/23 03:46:19;;;;;;;4.32;1.50;;;5.80;99.90;;;;;;4151171;28;20042;-83
2022/01/23 03:50:12;;;;;;;4.43;1.80;;;6.30;99.90;;;;;;4133729;28;20058;-83
2022/01/23 03:52:13;;;;;;;8.00;1.90;;;5.80;99.90;;;;;;4133777;28;20610;-83
2022/01/23 03:54:14;;;;;;;3.58;1.55;;;5.80;99.90;;;;;;4133881;28;20046;-83
2022/01/23 03:56:18;;;;;;;7.90;2.20;;;5.80;99.90;;;;;;4133883;28;20082;-83
2022/01/23 03:58:18;;;;;;;5.25;1.50;;;5.80;99.90;;;;;;4131692;28;20046;-83
2022/01/23 04:00:19;;;;;;;6.80;2.13;;;6.30;99.90;;;;;;4134214;28;20049;-83
2022/01/23 04:02:20;;;;;;;7.30;1.50;;;5.80;99.90;;;;;;4118527;28;20050;-83
2022/01/23 04:06:38;;;;;;;3.00;1.40;;;6.40;99.90;;;;;;4117440;28;20054;-83
2022/01/23 04:08:39;;;;;;;10.20;2.10;;;5.80;99.90;;;;;;4118153;28;20051;-83
2022/01/23 04:10:40;;;;;;;5.13;1.80;;;6.50;99.90;;;;;;4129463;28;20053;-83
2022/01/23 04:14:49;;;;;;;5.07;1.42;;;5.70;99.90;;;;;;4131929;28;20523;-83
2022/01/23 04:31:43;;;;;;;4.22;1.50;;;5.80;99.90;;;;;;4131992;28;20478;-83
2022/01/23 04:35:45;;;;;;;4.50;2.50;;;5.70;99.90;;;;;;4131130;28;20141;-83
2022/01/23 05:00:35;;;;;;;7.07;1.40;;;6.20;99.90;;;;;;4130318;28;20095;-82
2022/01/23 05:04:41;;;;;;;6.47;1.80;;;6.40;99.90;;;;;;4131205;28;20054;-82
2022/01/23 05:06:46;;;;;;;3.88;1.52;;;6.00;99.90;;;;;;4132053;28;20046;-82
2022/01/23 05:08:46;;;;;;;7.25;2.00;;;5.70;99.90;;;;;;4130703;28;20490;-82
2022/01/23 05:10:47;;;;;;;3.38;1.85;;;5.70;99.90;;;;;;4130441;28;20125;-82
2022/01/23 05:12:48;;;;;;;5.72;2.03;;;6.00;99.90;;;;;;4135054;28;20487;-82
2022/01/23 05:14:50;;;;;;;6.97;1.80;;;5.70;99.90;;;;;;4131431;28;20047;-83
2022/01/23 05:16:50;;;;;;;5.50;1.98;;;5.70;99.90;;;;;;4128459;28;20352;-82
2022/01/23 05:18:53;;;;;;;3.50;1.73;;;5.80;99.90;;;;;;4126483;28;20480;-82
2022/01/23 05:21:09;;;;;;;7.35;2.50;;;5.90;99.90;;;;;;4125408;28;20111;-82
2022/01/23 05:23:11;;;;;;;2.67;1.27;;;5.70;99.90;;;;;;4130739;28;20050;-82
2022/01/23 05:25:25;;;;;;;4.25;1.92;;;5.70;99.90;;;;;;4127679;28;20046;-82
2022/01/23 05:27:27;;;;;;;4.65;1.60;;;6.00;99.90;;;;;;4132073;28;20050;-82
2022/01/23 05:29:28;;;;;;;6.80;2.03;;;5.70;99.90;;;;;;4130110;28;20050;-82
2022/01/23 05:31:29;;;;;;;3.67;1.55;;;5.70;99.90;;;;;;4126964;28;20196;-82
2022/01/23 05:33:30;;;;;;;3.60;1.35;;;5.70;99.90;;;;;;4130649;28;20513;-82
2022/01/23 05:35:31;;;;;;;8.32;1.60;;;5.70;99.90;;;;;;4129654;28;20085;-82
2022/01/23 05:37:33;;;;;;;6.60;1.52;;;5.60;99.90;;;;;;4109128;28;20074;-82
2022/01/23 05:39:34;;;;;;;3.47;1.17;;;5.70;99.90;;;;;;4130720;28;20102;-83
2022/01/23 05:41:35;;;;;;;4.47;1.85;;;5.70;99.90;;;;;;4131001;28;20105;-82
2022/01/23 05:43:38;;;;;;;2.88;1.52;;;6.10;99.90;;;;;;4131004;28;20570;-82
2022/01/23 05:45:41;;;;;;;3.10;1.42;;;6.40;99.90;;;;;;4130726;28;20042;-82
2022/01/23 05:47:42;;;;;;;5.53;1.40;;;5.70;99.90;;;;;;4114173;28;20050;-82
2022/01/23 05:49:43;;;;;;;6.43;2.25;;;6.20;99.90;;;;;;4101353;28;20051;-82
2022/01/23 05:51:44;;;;;;;6.47;1.50;;;5.70;99.90;;;;;;4124054;28;20511;-82
2022/01/23 05:53:44;;;;;;;7.38;1.70;;;5.90;99.90;;;;;;4133112;28;20050;-81
2022/01/23 05:55:45;;;;;;;6.22;1.63;;;5.70;99.90;;;;;;4134576;28;20053;-82
2022/01/23 05:57:46;;;;;;;3.17;1.75;;;5.70;99.90;;;;;;4131893;28;20047;-82
2022/01/23 05:59:46;;;;;;;5.90;1.70;;;5.70;99.90;;;;;;4114506;28;20656;-82
2022/01/23 06:01:51;;;;;;;4.50;1.95;;;5.70;99.90;;;;;;4130874;28;20558;-82
2022/01/23 06:03:51;;;;;;;4.57;1.52;;;5.70;99.90;;;;;;4132105;28;20161;-82
2022/01/23 06:05:52;;;;;;;4.28;1.40;;;5.80;99.90;;;;;;4130769;28;20054;-82
2022/01/23 06:07:53;;;;;;;3.22;1.55;;;5.80;99.90;;;;;;4130501;28;20489;-82
2022/01/23 06:09:54;;;;;;;5.13;1.80;;;6.40;99.90;;;;;;4129896;28;20046;-82
2022/01/23 06:11:55;;;;;;;5.20;1.88;;;5.60;99.90;;;;;;4114171;28;20051;-82
2022/01/23 06:13:56;;;;;;;3.30;1.25;;;5.60;99.90;;;;;;4129128;28;20196;-82
2022/01/23 06:15:58;;;;;;;5.72;1.77;;;5.60;99.90;;;;;;4130546;28;20072;-82
2022/01/23 06:17:59;;;;;;;6.50;1.70;;;5.60;99.90;;;;;;4129561;28;20042;-82
2022/01/23 06:20:01;;;;;;;3.00;1.30;;;5.60;99.90;;;;;;4130653;28;20051;-83
2022/01/23 06:22:02;;;;;;;5.88;2.55;;;6.10;99.90;;;;;;4130294;28;20121;-82
2022/01/23 06:24:11;;;;;;;4.30;1.80;;;5.60;99.90;;;;;;4132049;28;20046;-82
2022/01/23 06:26:11;;;;;;;3.40;1.38;;;5.60;99.90;;;;;;4144487;28;20188;-82
2022/01/23 06:28:25;;;;;;;3.90;1.60;;;5.60;99.90;;;;;;4127085;28;20496;-82
2022/01/23 06:30:26;;;;;;;4.97;1.80;;;5.60;99.90;;;;;;4113504;28;20051;-82
2022/01/23 06:32:27;;;;;;;6.30;1.75;;;6.00;99.90;;;;;;4114664;28;20196;-82
2022/01/23 06:34:29;;;;;;;4.95;1.50;;;5.60;99.90;;;;;;4133191;28;20050;-82
2022/01/23 06:36:30;;;;;;;6.47;1.52;;;6.20;99.90;;;;;;4147196;28;20061;-82
2022/01/23 06:38:31;;;;;;;5.05;1.90;;;5.80;99.90;;;;;;4145976;28;20056;-82
2022/01/23 06:40:31;;;;;;;4.35;1.38;;;5.60;99.90;;;;;;4121429;28;20053;-82
2022/01/23 06:42:32;;;;;;;4.75;1.50;;;5.90;99.90;;;;;;4130948;28;20081;-81
2022/01/23 06:44:34;;;;;;;3.60;1.73;;;5.60;99.90;;;;;;4130554;28;20043;-82
2022/01/23 06:46:34;;;;;;;2.97;1.38;;;5.70;99.90;;;;;;4130647;28;20046;-82
2022/01/23 06:48:35;;;;;;;3.03;1.30;;;6.00;99.90;;;;;;4114099;28;20384;-82
2022/01/23 06:50:36;;;;;;;4.22;1.45;;;5.50;99.90;;;;;;4128426;28;20109;-82
2022/01/23 06:52:36;;;;;;;3.85;1.83;;;5.50;99.90;;;;;;4147061;28;20052;-82
2022/01/23 06:54:37;;;;;;;4.82;1.45;;;6.00;99.90;;;;;;4146191;28;20050;-82
2022/01/23 06:56:38;;;;;;;3.05;1.92;;;5.50;99.90;;;;;;4146840;28;20494;-82
2022/01/23 06:58:38;;;;;;;3.95;1.40;;;5.50;99.90;;;;;;4146720;28;20516;-82
2022/01/23 07:00:39;;;;;;;5.85;1.42;;;5.50;99.90;;;;;;4146507;28;20046;-82
2022/01/23 07:02:40;;;;;;;3.42;1.25;;;5.60;99.90;;;;;;4146914;28;20089;-82
2022/01/23 07:04:42;;;;;;;3.58;1.70;;;5.50;99.90;;;;;;4129134;28;20511;-82
2022/01/23 07:06:42;;;;;;;2.13;1.23;;;6.30;99.90;;;;;;4129359;28;20057;-82
2022/01/23 07:08:43;;;;;;;4.22;1.80;;;5.50;99.90;;;;;;4128211;28;20086;-82
2022/01/23 07:10:44;;;;;;;3.80;1.40;;;5.50;99.90;;;;;;4128972;28;20054;-82
2022/01/23 07:12:46;;;;;;;4.63;1.45;;;5.50;99.90;;;;;;4129294;28;20133;-82
2022/01/23 07:14:48;;;;;;;3.63;1.52;;;5.50;99.90;;;;;;4146403;28;20517;-82
2022/01/23 07:16:48;;;;;;;4.25;1.45;;;5.50;99.90;;;;;;4146741;28;20121;-82
2022/01/23 07:18:50;;;;;;;3.60;1.30;;;5.50;99.90;;;;;;4113077;28;20094;-82
2022/01/23 07:20:51;;;;;;;5.15;1.55;;;6.20;99.90;;;;;;4129350;28;20106;-82
2022/01/23 07:22:51;;;;;;;3.20;1.58;;;5.50;99.90;;;;;;4146568;28;20535;-82
2022/01/23 07:24:53;;;;;;;7.00;1.77;;;5.50;99.90;;;;;;4114212;28;20193;-82
2022/01/23 07:26:54;;;;;;;4.25;1.77;;;5.50;99.90;;;;;;4116416;28;20042;-84
2022/01/23 07:28:57;;;;;;;4.82;1.67;;;5.50;99.90;;;;;;4131789;28;20054;-82
2022/01/23 07:31:03;;;;;;;5.93;1.70;;;5.40;99.90;;;;;;4132577;28;20471;-82
2022/01/23 07:33:04;;;;;;;4.15;1.70;;;5.70;99.90;;;;;;4114550;28;20129;-82
2022/01/23 07:35:06;;;;;;;6.53;2.00;;;5.40;99.90;;;;;;4131038;28;20089;-82
2022/01/23 07:37:06;;;;;;;4.70;1.92;;;5.40;99.90;;;;;;4115817;28;20054;-82
2022/01/23 07:39:07;;;;;;;6.50;1.65;;;5.40;99.90;;;;;;4117643;28;20046;-82
2022/01/23 07:41:08;;;;;;;4.55;1.80;;;5.40;99.90;;;;;;4124749;28;20038;-82
2022/01/23 07:43:09;;;;;;;4.00;2.20;;;5.40;99.90;;;;;;4133527;28;20050;-82
2022/01/23 07:45:09;;;;;;;7.90;2.17;;;6.10;99.90;;;;;;4134719;28;20042;-82
2022/01/23 07:47:10;;;;;;;6.25;2.13;;;5.40;99.90;;;;;;4149915;28;20049;-82
2022/01/23 07:49:11;;;;;;;5.15;2.10;;;5.40;99.90;;;;;;4137304;28;20128;-82
2022/01/23 07:51:12;;;;;;;8.27;2.65;;;5.30;99.90;;;;;;4118684;28;20054;-82
2022/01/23 07:53:13;;;;;;;3.85;1.83;;;5.30;99.90;;;;;;4132752;28;20051;-82
2022/01/23 07:55:15;;;;;;;10.02;2.40;;;5.30;99.90;;;;;;4133570;28;20035;-82
2022/01/23 07:57:16;;;;;;;7.07;2.20;;;5.30;99.90;;;;;;4132378;28;20228;-82
2022/01/23 07:59:17;;;;;;;5.20;2.20;;;5.80;99.90;;;;;;4131189;28;20089;-82
2022/01/23 08:01:17;;;;;;;6.00;2.00;;;6.50;99.90;;;;;;4116011;28;20047;-82
2022/01/23 08:03:19;;;;;;;4.50;2.03;;;5.60;99.90;;;;;;4133436;28;20039;-82
2022/01/23 08:05:20;;;;;;;4.30;1.80;;;5.30;99.90;;;;;;4117113;28;20054;-82
2022/01/23 08:07:42;;;;;;;4.97;1.85;;;5.30;99.90;;;;;;4132127;28;20392;-82
2022/01/23 08:09:42;;;;;;;7.50;1.88;;;6.30;99.90;;;;;;4133210;28;20049;-82
2022/01/23 08:11:42;;;;;;;6.97;2.22;;;5.30;99.90;;;;;;4132611;28;20046;-82
2022/01/23 08:13:44;;;;;;;6.22;1.80;;;5.30;99.90;;;;;;4130407;28;20121;-82
2022/01/23 08:15:45;;;;;;;5.40;1.83;;;5.20;99.90;;;;;;4133752;28;20483;-81
2022/01/23 08:17:45;;;;;;;3.63;1.52;;;5.20;99.90;;;;;;4132327;28;20050;-82
2022/01/23 08:19:46;;;;;;;5.97;1.90;;;5.20;99.90;;;;;;4131915;28;20046;-82
2022/01/23 08:21:47;;;;;;;7.63;1.48;;;5.40;99.90;;;;;;4132089;28;20114;-82
2022/01/23 08:23:52;;;;;;;3.42;1.88;;;5.40;99.90;;;;;;4131922;28;20050;-82
2022/01/23 08:25:53;;;;;;;5.63;2.20;;;5.20;99.90;;;;;;4133312;28;20057;-82
2022/01/23 08:27:54;;;;;;;5.10;2.03;;;6.10;99.90;;;;;;4131451;28;20050;-82
2022/01/23 08:29:55;;;;;;;4.70;1.90;;;5.70;99.90;;;;;;4132078;28;20046;-82
2022/01/23 08:31:55;;;;;;;4.32;2.05;;;5.80;99.90;;;;;;4132029;28;20046;-82
2022/01/23 08:33:56;;;;;;;5.20;1.95;;;5.20;99.90;;;;;;4136769;28;20164;-82
2022/01/23 08:35:57;;;;;;;4.88;2.08;;;5.70;99.90;;;;;;4149551;28;20075;-82
2022/01/23 08:37:59;;;;;;;7.35;2.15;;;5.30;99.90;;;;;;4127071;28;20065;-83
2022/01/23 08:40:00;;;;;;;4.30;1.83;;;5.80;99.90;;;;;;4113460;28;20038;-82
2022/01/23 08:42:10;;;;;;;4.70;2.03;;;5.40;99.90;;;;;;4133892;28;20125;-83
2022/01/23 08:44:10;;;;;;;;;;;5.50;99.90;;;;;;4133679;28;20046;-83
2022/01/23 08:46:11;;;;;;;2.90;1.40;;;5.60;99.90;;;;;;4161104;28;20361;-83
2022/01/23 08:48:12;;;;;;;3.30;1.83;;;5.70;99.90;;;;;;4150032;28;20053;-80
2022/01/23 08:50:13;;;;;;;4.03;1.50;;;5.70;99.90;;;;;;4151556;28;20050;-81
2022/01/23 08:52:19;;;;;;;3.70;1.42;;;5.80;99.90;;;;;;4132477;28;20053;-83
2022/01/23 08:54:20;;;;;;;4.50;2.00;;;5.90;99.90;;;;;;4149683;28;20046;-83
2022/01/23 08:56:21;;;;;;;3.22;1.25;;;5.90;99.90;;;;;;4114674;28;20077;-81
2022/01/23 08:58:21;;;;;;;3.83;1.20;;;6.80;99.90;;;;;;4120987;28;20133;-82
2022/01/23 09:00:22;;;;;;;3.92;1.40;;;6.30;99.90;;;;;;4132144;28;20039;-82
2022/01/23 09:02:25;;;;;;;2.38;1.17;;;7.00;99.90;;;;;;4129936;28;20534;-81
2022/01/23 09:04:25;;;;;;;3.05;1.20;;;6.90;99.90;;;;;;4127392;28;20118;-81
2022/01/23 09:06:26;;;;;;;4.15;1.17;;;6.80;99.90;;;;;;4132195;28;20046;-81
2022/01/23 09:08:27;;;;;;;3.47;1.40;;;6.80;99.90;;;;;;4149563;28;20081;-81
2022/01/23 09:10:29;;;;;;;3.20;1.40;;;6.70;99.90;;;;;;4149184;28;20056;-82
2022/01/23 09:13:30;;;;;;;1.92;0.98;;;6.70;99.90;;;;;;4149751;28;20541;-83
2022/01/23 09:14:51;;;;;;;2.75;1.30;;;6.60;99.90;;;;;;4141950;28;20053;-82
2022/01/23 09:16:53;;;;;;;4.45;1.58;;;6.60;99.90;;;;;;4131543;28;20117;-82
2022/01/23 09:18:54;;;;;;;3.35;1.25;;;6.90;99.90;;;;;;4131608;28;20050;-82
2022/01/23 09:20:54;;;;;;;3.78;1.38;;;7.50;99.90;;;;;;4132982;28;20057;-83
2022/01/23 09:22:56;;;;;;;4.00;1.40;;;7.10;99.90;;;;;;4123676;28;20107;-82
2022/01/23 09:25:00;;;;;;;3.28;1.40;;;6.40;99.90;;;;;;4120033;28;20086;-82
2022/01/23 09:27:04;;;;;;;2.95;1.60;;;6.40;99.90;;;;;;4132423;28;20062;-82
2022/01/23 09:29:14;;;;;;;5.32;1.42;;;6.40;99.90;;;;;;4133211;28;20038;-82
2022/01/23 09:31:27;;;;;;;5.30;1.60;;;6.40;99.90;;;;;;4105611;28;20057;-82
2022/01/23 09:33:29;;;;;;;2.17;1.20;;;6.40;99.90;;;;;;4132039;28;20130;-82
2022/01/23 09:35:31;;;;;;;1.42;0.88;;;6.40;99.90;;;;;;4115927;28;20120;-81
2022/01/23 09:37:32;;;;;;;6.82;2.13;;;6.40;99.90;;;;;;4132821;28;20038;-81
2022/01/23 09:39:34;;;;;;;3.63;1.38;;;6.50;99.90;;;;;;4136130;28;20566;-82
2022/01/23 09:41:36;;;;;;;4.72;1.67;;;7.60;99.90;;;;;;4150167;28;20116;-82
2022/01/23 09:43:39;;;;;;;3.97;1.60;;;6.50;99.90;;;;;;4149468;28;20501;-83
2022/01/23 09:45:42;;;;;;;5.13;1.67;;;6.50;99.90;;;;;;4131942;28;20447;-81
2022/01/23 09:47:43;;;;;;;3.53;1.88;;;6.90;99.90;;;;;;4149808;28;20108;-82
2022/01/23 09:49:44;;;;;;;3.22;1.80;;;6.60;99.90;;;;;;4123811;28;20042;-82
2022/01/23 09:51:46;;;;;;;5.38;1.83;;;6.60;99.90;;;;;;4133370;28;20069;-82
2022/01/23 09:53:51;;;;;;;3.38;1.67;;;6.70;99.90;;;;;;4133674;28;20043;-82
2022/01/23 09:55:57;;;;;;;5.75;1.70;;;6.70;99.90;;;;;;4127198;28;20057;-82
2022/01/23 09:58:00;;;;;;;2.85;1.48;;;6.60;99.90;;;;;;4131772;28;20457;-83
2022/01/23 10:00:03;;;;;;;4.03;1.70;;;6.70;99.90;;;;;;4149578;28;20092;-82
2022/01/23 10:02:05;;;;;;;3.10;1.50;;;6.70;99.90;;;;;;4122176;28;20062;-82
2022/01/23 10:04:06;;;;;;;3.25;1.63;;;6.80;99.90;;;;;;4124564;28;20053;-82
2022/01/23 10:06:08;;;;;;;4.65;1.60;;;6.70;99.90;;;;;;4132071;28;20058;-83
2022/01/23 10:08:09;;;;;;;3.20;1.55;;;6.90;99.90;;;;;;4131462;28;20129;-83
2022/01/23 10:10:23;;;;;;;5.72;1.67;;;7.30;99.90;;;;;;4131531;28;20054;-83
2022/01/23 10:12:26;;;;;;;3.55;1.50;;;6.80;99.90;;;;;;4132006;28;20054;-82
2022/01/23 10:14:28;;;;;;;4.50;1.50;;;6.80;99.90;;;;;;4149652;28;20410;-82
2022/01/23 10:16:30;;;;;;;4.65;1.52;;;6.80;99.90;;;;;;4132312;28;20057;-81
2022/01/23 10:18:31;;;;;;;2.88;1.30;;;6.90;99.90;;;;;;4131752;28;20046;-81
2022/01/23 10:20:32;;;;;;;4.05;1.40;;;7.40;99.90;;;;;;4149604;28;20053;-81
2022/01/23 10:22:35;;;;;;;2.35;1.40;;;7.00;99.90;;;;;;4115406;28;20057;-82
2022/01/23 10:24:35;;;;;;;3.75;1.60;;;6.90;99.90;;;;;;4149022;28;20057;-82
2022/01/23 10:26:45;;;;;;;2.30;1.20;;;7.10;99.90;;;;;;4149607;28;20125;-82
2022/01/23 10:28:47;;;;;;;2.38;1.02;;;7.00;99.90;;;;;;4116013;28;20539;-82
2022/01/23 10:30:55;;;;;;;4.63;1.27;;;7.10;99.90;;;;;;4149751;28;20046;-82
2022/01/23 10:33:16;;;;;;;2.47;1.10;;;7.80;99.90;;;;;;4132472;28;20133;-81
2022/01/23 10:35:17;;;;;;;2.33;0.80;;;7.10;99.90;;;;;;4133007;28;20390;-82
2022/01/23 10:37:39;;;;;;;1.92;1.10;;;7.10;99.90;;;;;;4147244;28;20100;-82
2022/01/23 10:39:42;;;;;;;1.05;0.75;;;7.10;99.90;;;;;;4101465;29;20570;-81
2022/01/23 10:41:49;;;;;;;0.98;0.60;;;7.40;99.90;;;;;;4118022;28;20460;-83
2022/01/23 10:47:27;;;;;;;2.47;0.60;;;7.10;99.90;;;;;;4147209;28;20086;-81
2022/01/23 10:49:12;;;;;;;1.67;0.80;;;7.10;99.90;;;;;;4153232;28;20057;-82
2022/01/23 10:51:25;;;;;;;2.13;0.60;;;7.50;99.90;;;;;;4131245;28;20055;-82
2022/01/23 10:53:26;;;;;;;1.38;0.70;;;7.20;99.90;;;;;;4134098;28;20050;-82
2022/01/23 10:55:31;;;;;;;5.25;0.80;;;7.20;99.90;;;;;;4123087;28;20534;-83
2022/01/23 10:57:45;;;;;;;3.53;0.70;;;7.20;99.90;;;;;;4136097;28;20049;-83
2022/01/23 10:59:54;;;;;;;8.07;0.88;;;7.10;99.90;;;;;;4151604;28;20050;-83
2022/01/23 11:02:06;;;;;;;;;;;7.20;99.90;;;;;;4151536;28;20474;-82
2022/01/23 11:04:12;;;;;;;2.67;1.05;;;7.10;99.90;;;;;;4151121;28;19921;-82
2022/01/23 11:06:13;;;;;;;2.60;1.33;;;7.50;99.90;;;;;;4151511;28;20080;-83
2022/01/23 11:08:29;;;;;;;3.50;1.30;;;7.20;99.90;;;;;;4136763;28;20045;-82
2022/01/23 11:10:30;;;;;;;1.52;0.77;;;7.10;99.90;;;;;;4152011;28;20548;-82
2022/01/23 11:17:22;;;;;;;4.25;0.77;;;7.20;99.90;;;;;;4152323;28;20129;-82
2022/01/23 11:19:25;;;;;;;2.17;0.68;;;7.50;99.90;;;;;;4152246;28;20041;-83
2022/01/23 11:21:26;;;;;;;1.20;0.60;;;7.20;99.90;;;;;;4133903;28;20125;-82
2022/01/23 11:23:29;;;;;;;1.58;0.50;;;7.20;99.90;;;;;;4134891;28;20042;-82
2022/01/23 11:25:30;;;;;;;0.80;0.60;;;7.20;99.90;;;;;;4134816;28;20090;-83
2022/01/23 11:27:37;;;;;;;0.70;0.47;;;7.30;99.90;;;;;;4152120;28;20120;-82
2022/01/23 11:30:00;;;;;;;1.50;0.50;;;7.20;99.90;;;;;;4151543;28;20053;-81
2022/01/23 11:32:01;;;;;;;0.80;0.63;;;7.20;99.90;;;;;;4134388;28;20050;-83
2022/01/23 11:34:04;;;;;;;2.58;0.85;;;7.50;99.90;;;;;;4131684;28;20185;-83
2022/01/23 11:36:06;;;;;;;2.35;1.52;;;7.20;99.90;;;;;;4134304;28;20513;-83
2022/01/23 11:38:12;;;;;;;2.40;0.80;;;7.30;99.90;;;;;;4148089;28;20499;-82
2022/01/23 11:54:41;;;;;;;3.10;1.80;;;7.30;99.90;;;;;;4089946;29;20058;-83
2022/01/23 11:56:44;;;;;;;2.22;0.77;;;7.30;99.90;;;;;;4101588;29;20068;-82
2022/01/23 11:58:45;;;;;;;3.15;1.00;;;7.30;99.90;;;;;;4097319;29;20394;-82
2022/01/23 12:00:48;;;;;;;2.22;0.85;;;7.30;99.90;;;;;;4133300;28;20149;-82
2022/01/23 12:03:07;;;;;;;3.97;1.70;;;7.40;99.90;;;;;;4118125;28;20074;-83
2022/01/23 12:05:19;;;;;;;3.08;1.13;;;7.30;99.90;;;;;;4133372;28;20047;-82
2022/01/23 12:07:20;;;;;;;3.08;0.90;;;7.90;99.90;;;;;;4132831;28;20109;-82
2022/01/23 12:09:21;;;;;;;2.00;0.95;;;8.10;99.90;;;;;;4133221;28;20499;-83
2022/01/23 12:11:43;;;;;;;1.50;0.85;;;7.40;99.90;;;;;;4125878;28;20055;-83
2022/01/23 12:13:57;;;;;;;1.85;0.93;;;7.40;99.90;;;;;;4127533;28;20093;-82
2022/01/23 12:18:34;;;;;;;3.67;1.15;;;7.40;99.90;;;;;;4116027;28;20551;-82
2022/01/23 12:20:36;;;;;;;5.38;0.90;;;7.50;99.90;;;;;;4128322;28;20057;-82
2022/01/23 12:22:41;;;;;;;2.25;0.82;;;7.40;99.90;;;;;;4115334;28;20051;-82
2022/01/23 12:24:49;;;;;;;2.05;0.93;;;7.70;99.90;;;;;;4151120;28;20084;-83
2022/01/23 12:26:52;;;;;;;2.55;0.80;;;7.50;99.90;;;;;;4152708;28;20042;-82
2022/01/23 12:28:53;;;;;;;2.17;0.90;;;7.50;99.90;;;;;;4134680;28;20046;-82
2022/01/23 12:31:00;;;;;;;3.15;0.90;;;7.90;99.90;;;;;;4134709;28;20050;-82
2022/01/23 12:33:29;;;;;;;1.95;0.98;;;8.10;99.90;;;;;;4151344;28;20058;-82
2022/01/23 12:35:38;;;;;;;1.92;0.90;;;7.50;99.90;;;;;;4136478;28;20054;-83
2022/01/23 12:38:02;;;;;;;;;;;7.50;99.90;;;;;;4137799;28;20522;-82
2022/01/23 12:40:22;;;;;;;1.45;0.85;;;7.50;99.90;;;;;;4135861;28;19976;-82
2022/01/23 12:42:23;;;;;;;2.22;1.02;;;7.50;99.90;;;;;;4134171;28;20109;-83
2022/01/23 12:44:25;;;;;;;2.08;0.95;;;8.10;99.90;;;;;;4132855;28;20046;-82
2022/01/23 12:46:33;;;;;;;1.73;0.85;;;8.10;99.90;;;;;;4133988;28;20149;-82
2022/01/23 12:48:36;;;;;;;1.38;0.82;;;7.50;99.90;;;;;;4132511;28;20042;-84
2022/01/23 12:50:45;;;;;;;2.55;1.20;;;8.10;99.90;;;;;;4132979;28;20093;-83
2022/01/23 12:52:50;;;;;;;2.95;1.10;;;7.50;99.90;;;;;;4133597;28;20042;-83
2022/01/23 12:54:59;;;;;;;3.90;1.15;;;7.60;99.90;;;;;;4132963;28;20085;-82
2022/01/23 12:57:13;;;;;;;3.30;1.20;;;7.50;99.90;;;;;;4133123;28;20129;-82
2022/01/23 12:59:26;;;;;;;2.30;1.10;;;7.50;99.90;;;;;;4116789;28;20055;-83
2022/01/23 13:01:28;;;;;;;2.35;1.13;;;7.60;99.90;;;;;;4132736;28;20085;-83
2022/01/23 13:03:29;;;;;;;2.85;1.00;;;7.50;99.90;;;;;;4133508;28;20050;-82
2022/01/23 13:05:29;;;;;;;2.65;1.38;;;8.00;99.90;;;;;;4116140;28;20065;-82
2022/01/23 13:08:20;;;;;;;2.17;1.05;;;7.50;99.90;;;;;;4120134;28;20058;-82
2022/01/23 13:09:58;;;;;;;1.30;0.85;;;7.40;99.90;;;;;;4129174;28;20458;-83
2022/01/23 13:14:08;;;;;;;2.80;1.20;;;7.40;99.90;;;;;;4133133;28;20053;-83
2022/01/23 13:28:24;;;;;;;1.83;1.00;;;7.40;99.90;;;;;;4132810;28;20057;-82
2022/01/23 13:32:44;;;;;;;3.38;1.17;;;7.40;99.90;;;;;;4134092;28;20050;-82
2022/01/23 13:34:57;;;;;;;4.00;1.30;;;7.40;99.90;;;;;;4143091;28;20060;-82
2022/01/23 13:37:03;;;;;;;1.85;1.10;;;7.40;99.90;;;;;;4148590;28;20046;-83
2022/01/23 13:39:07;;;;;;;2.03;0.98;;;7.80;99.90;;;;;;4132443;28;20145;-83
2022/01/23 13:41:23;;;;;;;2.88;1.30;;;7.40;99.90;;;;;;4131421;28;20431;-83
2022/01/23 13:48:46;;;;;;;2.88;1.58;;;7.40;99.90;;;;;;4131176;28;20581;-81
2022/01/23 13:53:22;;;;;;;3.60;1.60;;;7.40;99.90;;;;;;4149656;28;20050;-81
2022/01/23 14:00:22;;;;;;;4.18;1.27;;;7.70;99.90;;;;;;4132033;28;20051;-81
2022/01/23 14:02:27;;;;;;;2.63;1.40;;;7.30;99.90;;;;;;4129805;28;20100;-81
2022/01/23 14:04:30;;;;;;;5.25;1.83;;;7.30;99.90;;;;;;4131905;28;20046;-83
2022/01/23 14:06:31;;;;;;;3.42;1.33;;;7.60;99.90;;;;;;4132259;28;20129;-81
2022/01/23 14:08:32;;;;;;;3.65;1.30;;;7.00;99.90;;;;;;4147718;28;20104;-82
2022/01/23 14:10:35;;;;;;;3.05;1.50;;;7.30;99.90;;;;;;4140414;28;20049;-82